createdAt,value
2019-05-26T00:00:32.609Z,10.10
2019-05-26T00:03:01.832Z,10.70
2019-05-26T00:05:31.429Z,10.00
2019-05-26T00:08:00.670Z,11.00
2019-05-26T00:10:30.240Z,9.80
2019-05-26T00:12:59.500Z,11.00
2019-05-26T00:15:29.304Z,11.60
2019-05-26T00:17:59.375Z,8.70
2019-05-26T00:20:28.626Z,12.03
2019-05-26T00:22:57.864Z,9.70
2019-05-26T00:25:27.149Z,8.07
2019-05-26T00:27:56.381Z,7.93
2019-05-26T00:30:27.309Z,9.48
2019-05-26T00:32:57.019Z,15.43
2019-05-26T00:35:27.050Z,9.60
2019-05-26T00:37:56.280Z,9.80
2019-05-26T00:40:25.729Z,10.30
2019-05-26T00:42:54.972Z,10.70
2019-05-26T00:45:26.413Z,9.17
2019-05-26T00:47:55.699Z,18.23
2019-05-26T00:50:25.145Z,25.00
2019-05-26T00:52:56.619Z,17.70
2019-05-26T00:55:25.374Z,14.00
2019-05-26T00:57:55.366Z,22.03
2019-05-26T01:00:38.728Z,24.23
2019-05-26T01:03:08.797Z,18.30
2019-05-26T01:05:38.426Z,17.53
2019-05-26T01:08:09.950Z,19.90
2019-05-26T01:10:40.664Z,14.43
2019-05-26T01:13:10.278Z,16.83
2019-05-26T01:15:39.995Z,17.57
2019-05-26T01:18:09.498Z,23.23
2019-05-26T01:20:38.731Z,18.90
2019-05-26T01:23:07.985Z,16.60
2019-05-26T01:25:37.217Z,18.00
2019-05-26T01:28:06.892Z,20.10
2019-05-26T01:30:37.780Z,17.97
2019-05-26T01:33:07.539Z,16.43
2019-05-26T01:35:39.349Z,21.97
2019-05-26T01:38:23.150Z,20.57
2019-05-26T01:40:43.141Z,22.33
2019-05-26T01:43:12.378Z,27.53
2019-05-26T01:45:41.612Z,28.47
2019-05-26T01:48:11.009Z,19.83
2019-05-26T01:50:40.227Z,22.13
2019-05-26T01:53:09.564Z,25.57
2019-05-26T01:55:38.853Z,28.70
2019-05-26T01:58:08.197Z,23.13
2019-05-26T02:00:37.422Z,26.63
2019-05-26T02:03:08.641Z,28.97
2019-05-26T02:05:37.899Z,26.43
2019-05-26T02:08:07.125Z,26.67
2019-05-26T02:10:36.383Z,34.20
2019-05-26T02:13:07.129Z,29.03
2019-05-26T02:15:36.698Z,30.50
2019-05-26T02:18:06.306Z,29.63
2019-05-26T02:20:36.012Z,26.23
2019-05-26T02:23:05.609Z,29.93
2019-05-26T02:25:36.353Z,26.03
2019-05-26T02:28:05.632Z,31.47
2019-05-26T02:30:35.882Z,26.80
2019-05-26T02:33:05.163Z,30.30
2019-05-26T02:35:34.417Z,33.67
2019-05-26T02:38:03.882Z,31.87
2019-05-26T02:40:33.398Z,25.30
2019-05-26T02:43:02.669Z,39.00
2019-05-26T02:45:32.182Z,27.80
2019-05-26T02:48:01.802Z,26.90
2019-05-26T02:50:31.413Z,30.13
2019-05-26T02:53:00.981Z,25.13
2019-05-26T02:55:30.209Z,27.20
2019-05-26T02:57:59.850Z,28.83
2019-05-26T03:00:42.508Z,25.60
2019-05-26T03:03:13.321Z,29.30
2019-05-26T03:05:44.486Z,30.50
2019-05-26T03:08:14.493Z,26.73
2019-05-26T03:10:44.397Z,24.85
2019-05-26T03:13:17.751Z,26.63
2019-05-26T03:15:47.934Z,27.67
2019-05-26T03:18:18.603Z,30.83
2019-05-26T03:20:47.867Z,33.00
2019-05-26T03:23:17.346Z,26.93
2019-05-26T03:25:46.927Z,33.17
2019-05-26T03:28:16.160Z,32.30
2019-05-26T03:30:46.519Z,32.03
2019-05-26T03:33:16.144Z,32.70
2019-05-26T03:35:45.527Z,31.10
2019-05-26T03:38:15.286Z,32.00
2019-05-26T03:40:44.917Z,32.63
2019-05-26T03:43:15.482Z,33.93
2019-05-26T03:46:21.630Z,36.17
2019-05-26T03:48:51.213Z,40.17
2019-05-26T03:51:20.673Z,31.50
2019-05-26T03:53:49.930Z,38.80
2019-05-26T03:56:19.719Z,30.17
2019-05-26T03:58:48.991Z,40.50
2019-05-26T04:01:18.241Z,31.30
2019-05-26T04:03:47.912Z,36.43
2019-05-26T04:06:17.531Z,34.07
2019-05-26T04:08:47.151Z,39.00
2019-05-26T04:11:17.428Z,39.53
2019-05-26T04:13:48.216Z,32.77
2019-05-26T04:16:17.470Z,32.70
2019-05-26T04:18:47.580Z,33.87
2019-05-26T04:21:16.800Z,33.67
2019-05-26T04:23:46.429Z,35.90
2019-05-26T04:26:15.746Z,33.70
2019-05-26T04:28:45.302Z,35.13
2019-05-26T04:31:14.960Z,33.83
2019-05-26T04:33:44.674Z,32.50
2019-05-26T04:36:13.931Z,33.33
2019-05-26T04:38:43.166Z,38.80
2019-05-26T04:41:12.440Z,34.23
2019-05-26T04:43:41.688Z,36.40
2019-05-26T04:46:11.225Z,35.30
2019-05-26T04:48:42.338Z,31.77
2019-05-26T04:51:11.600Z,30.23
2019-05-26T04:53:41.128Z,32.30
2019-05-26T04:56:12.548Z,31.03
2019-05-26T04:58:42.433Z,33.70
2019-05-26T05:01:11.635Z,38.10
2019-05-26T05:03:41.076Z,30.57
2019-05-26T05:06:11.625Z,32.20
2019-05-26T05:08:41.238Z,33.07
2019-05-26T05:11:10.616Z,35.20
2019-05-26T05:13:41.334Z,36.40
2019-05-26T05:16:10.616Z,36.50
2019-05-26T05:18:40.293Z,30.73
2019-05-26T05:21:09.936Z,32.10
2019-05-26T05:23:39.218Z,36.73
2019-05-26T05:26:08.466Z,32.37
2019-05-26T05:28:37.721Z,34.87
2019-05-26T05:31:07.041Z,35.40
2019-05-26T05:33:36.736Z,37.00
2019-05-26T05:36:06.036Z,38.67
2019-05-26T05:38:35.626Z,40.17
2019-05-26T05:41:04.931Z,39.83
2019-05-26T05:43:34.175Z,35.87
2019-05-26T05:46:03.454Z,38.33
2019-05-26T05:48:32.681Z,40.60
2019-05-26T05:51:01.936Z,39.80
2019-05-26T05:53:31.188Z,39.83
2019-05-26T05:56:00.731Z,39.43
2019-05-26T05:58:30.101Z,38.13
2019-05-26T06:01:00.325Z,42.10
2019-05-26T06:03:29.590Z,41.53
2019-05-26T06:05:59.164Z,43.17
2019-05-26T06:08:28.876Z,39.13
2019-05-26T06:11:14.991Z,37.53
2019-05-26T06:13:29.429Z,39.70
2019-05-26T06:15:58.690Z,37.77
2019-05-26T06:18:27.932Z,41.97
2019-05-26T06:20:57.184Z,40.80
2019-05-26T06:23:26.614Z,37.73
2019-05-26T06:25:56.129Z,40.33
2019-05-26T06:28:25.351Z,41.03
2019-05-26T06:30:54.959Z,42.73
2019-05-26T06:33:24.168Z,42.17
2019-05-26T06:35:54.262Z,36.83
2019-05-26T06:38:23.494Z,38.63
2019-05-26T06:40:53.081Z,38.33
2019-05-26T06:43:22.863Z,42.77
2019-05-26T06:45:54.187Z,36.33
2019-05-26T06:48:26.748Z,38.93
2019-05-26T06:50:54.860Z,38.23
2019-05-26T06:53:24.400Z,39.30
2019-05-26T06:55:53.646Z,35.63
2019-05-26T06:58:23.383Z,35.80
2019-05-26T07:00:52.694Z,37.70
2019-05-26T07:03:22.119Z,35.40
2019-05-26T07:05:51.715Z,33.00
2019-05-26T07:08:22.124Z,35.43
2019-05-26T07:10:51.706Z,35.13
2019-05-26T07:13:21.773Z,35.70
2019-05-26T07:15:51.243Z,35.40
2019-05-26T07:18:20.502Z,32.83
2019-05-26T07:20:50.494Z,31.27
2019-05-26T07:23:19.814Z,40.23
2019-05-26T07:25:49.047Z,33.47
2019-05-26T07:28:18.631Z,36.57
2019-05-26T07:30:48.421Z,34.83
2019-05-26T07:33:17.691Z,33.60
2019-05-26T07:35:49.808Z,36.93
2019-05-26T07:38:18.228Z,31.43
2019-05-26T07:40:47.790Z,33.53
2019-05-26T07:43:17.070Z,37.00
2019-05-26T07:45:46.328Z,37.30
2019-05-26T07:48:16.202Z,32.67
2019-05-26T07:50:45.478Z,33.87
2019-05-26T07:53:15.112Z,31.40
2019-05-26T07:55:45.721Z,30.70
2019-05-26T07:58:16.235Z,35.70
2019-05-26T08:00:45.516Z,35.27
2019-05-26T08:03:14.821Z,35.93
2019-05-26T08:05:44.576Z,37.23
2019-05-26T08:08:13.889Z,32.97
2019-05-26T08:10:44.178Z,32.20
2019-05-26T08:13:13.467Z,35.23
2019-05-26T08:15:43.640Z,30.70
2019-05-26T08:18:13.236Z,33.00
2019-05-26T08:20:44.125Z,37.57
2019-05-26T08:23:13.686Z,36.73
2019-05-26T08:25:43.048Z,30.80
2019-05-26T08:28:12.603Z,30.37
2019-05-26T08:30:41.852Z,32.50
2019-05-26T08:33:11.128Z,29.73
2019-05-26T08:35:40.904Z,30.43
2019-05-26T08:38:10.532Z,32.00
2019-05-26T08:40:41.216Z,26.80
2019-05-26T08:43:10.481Z,31.17
2019-05-26T08:45:40.719Z,28.23
2019-05-26T08:48:09.992Z,25.53
2019-05-26T08:50:39.801Z,22.97
2019-05-26T08:53:09.666Z,25.50
2019-05-26T08:55:38.973Z,27.03
2019-05-26T08:58:08.722Z,27.23
2019-05-26T09:00:38.365Z,25.37
2019-05-26T09:03:07.699Z,27.70
2019-05-26T09:05:37.141Z,26.70
2019-05-26T09:08:08.264Z,25.00
2019-05-26T09:10:37.334Z,26.67
2019-05-26T09:13:06.583Z,27.67
2019-05-26T09:15:35.859Z,25.10
2019-05-26T09:18:05.162Z,26.03
2019-05-26T09:20:34.481Z,28.10
2019-05-26T09:23:03.996Z,28.60
2019-05-26T09:25:33.281Z,24.10
2019-05-26T09:28:02.883Z,23.70
2019-05-26T09:30:32.142Z,25.83
2019-05-26T09:33:01.428Z,27.30
2019-05-26T09:35:32.286Z,32.87
2019-05-26T09:38:01.863Z,22.00
2019-05-26T09:40:31.136Z,25.90
2019-05-26T09:43:14.780Z,25.00
2019-05-26T09:45:33.242Z,23.57
2019-05-26T09:48:03.614Z,27.33
2019-05-26T09:50:34.653Z,22.30
2019-05-26T09:53:03.894Z,21.30
2019-05-26T09:55:33.527Z,18.90
2019-05-26T09:58:02.925Z,22.60
2019-05-26T10:00:33.834Z,20.93
2019-05-26T10:03:03.476Z,18.30
2019-05-26T10:05:33.073Z,22.17
2019-05-26T10:08:02.681Z,21.90
2019-05-26T10:10:33.077Z,25.50
2019-05-26T10:13:02.350Z,18.77
2019-05-26T10:15:31.851Z,16.97
2019-05-26T10:18:01.422Z,18.80
2019-05-26T10:20:32.879Z,16.83
2019-05-26T10:23:02.136Z,18.00
2019-05-26T10:25:31.801Z,17.47
2019-05-26T10:28:01.087Z,18.77
2019-05-26T10:30:31.854Z,20.90
2019-05-26T10:33:01.414Z,29.57
2019-05-26T10:35:32.136Z,15.80
2019-05-26T10:38:01.436Z,15.33
2019-05-26T10:40:31.126Z,16.63
2019-05-26T10:43:01.143Z,15.20
2019-05-26T10:45:34.159Z,20.30
2019-05-26T10:48:03.686Z,24.57
2019-05-26T10:50:33.861Z,18.00
2019-05-26T10:53:03.529Z,19.87
2019-05-26T10:55:34.172Z,25.40
2019-05-26T10:58:03.508Z,18.07
2019-05-26T11:00:34.665Z,19.90
2019-05-26T11:03:03.960Z,16.87
2019-05-26T11:05:33.624Z,18.63
2019-05-26T11:08:03.229Z,22.00
2019-05-26T11:10:33.132Z,15.23
2019-05-26T11:13:02.726Z,18.43
2019-05-26T11:15:32.003Z,18.30
2019-05-26T11:18:01.297Z,15.27
2019-05-26T11:20:30.667Z,18.57
2019-05-26T11:22:59.957Z,33.60
2019-05-26T11:25:29.242Z,15.07
2019-05-26T11:27:59.599Z,21.67
2019-05-26T11:30:29.395Z,14.00
2019-05-26T11:32:59.707Z,13.20
2019-05-26T11:35:30.394Z,17.50
2019-05-26T11:38:00.026Z,15.50
2019-05-26T11:40:29.757Z,17.00
2019-05-26T11:43:14.064Z,13.87
2019-05-26T11:45:32.189Z,15.57
2019-05-26T11:48:01.479Z,12.80
2019-05-26T11:50:31.392Z,13.40
2019-05-26T11:53:00.996Z,12.30
2019-05-26T11:55:30.585Z,13.10
2019-05-26T11:57:59.913Z,12.80
2019-05-26T12:00:29.520Z,10.53
2019-05-26T12:03:00.543Z,13.10
2019-05-26T12:05:30.025Z,15.43
2019-05-26T12:07:59.673Z,10.37
2019-05-26T12:10:29.393Z,13.27
2019-05-26T12:12:58.679Z,12.83
2019-05-26T12:15:28.008Z,13.03
2019-05-26T12:17:58.324Z,14.40
2019-05-26T12:20:29.437Z,13.07
2019-05-26T12:22:58.677Z,10.90
2019-05-26T12:25:29.292Z,16.23
2019-05-26T12:27:58.566Z,14.00
2019-05-26T12:30:28.024Z,16.73
2019-05-26T12:32:57.356Z,13.03
2019-05-26T12:35:42.963Z,12.50
2019-05-26T12:38:12.455Z,13.00
2019-05-26T12:40:42.242Z,21.30
2019-05-26T12:43:11.797Z,12.67
2019-05-26T12:45:41.049Z,18.00
2019-05-26T12:48:10.312Z,23.93
2019-05-26T12:50:39.670Z,13.03
2019-05-26T12:53:12.008Z,16.60
2019-05-26T12:55:41.595Z,14.43
2019-05-26T12:58:10.852Z,14.70
2019-05-26T13:00:48.719Z,15.17
2019-05-26T13:03:13.706Z,15.47
2019-05-26T13:05:43.689Z,15.43
2019-05-26T13:08:15.823Z,16.53
2019-05-26T13:10:46.194Z,17.90
2019-05-26T13:13:15.495Z,14.63
2019-05-26T13:15:45.116Z,16.63
2019-05-26T13:18:16.750Z,21.03
2019-05-26T13:20:48.744Z,21.17
2019-05-26T13:23:18.484Z,17.10
2019-05-26T13:25:48.064Z,18.03
2019-05-26T13:28:19.843Z,15.87
2019-05-26T13:30:50.225Z,15.13
2019-05-26T13:33:19.484Z,12.53
2019-05-26T13:35:48.754Z,14.77
2019-05-26T13:38:19.775Z,14.77
2019-05-26T13:40:49.021Z,12.33
2019-05-26T13:43:18.677Z,14.37
2019-05-26T13:45:48.309Z,9.20
2019-05-26T13:48:17.938Z,11.00
2019-05-26T13:50:47.208Z,18.13
2019-05-26T13:53:16.470Z,16.17
2019-05-26T13:55:45.805Z,15.80
2019-05-26T13:58:15.061Z,16.90
2019-05-26T14:00:44.322Z,16.30
2019-05-26T14:03:13.576Z,21.67
2019-05-26T14:05:43.370Z,17.53
2019-05-26T14:08:12.621Z,15.73
2019-05-26T14:10:42.880Z,15.33
2019-05-26T14:13:12.355Z,14.80
2019-05-26T14:15:41.620Z,25.80
2019-05-26T14:18:12.251Z,13.37
2019-05-26T14:20:42.694Z,12.73
2019-05-26T14:23:12.063Z,16.47
2019-05-26T14:25:41.656Z,14.73
2019-05-26T14:28:11.337Z,16.83
2019-05-26T14:30:40.662Z,15.77
2019-05-26T14:33:09.984Z,14.90
2019-05-26T14:35:39.572Z,13.67
2019-05-26T14:38:09.962Z,13.40
2019-05-26T14:40:40.373Z,13.60
2019-05-26T14:43:09.611Z,15.67
2019-05-26T14:45:52.397Z,11.00
2019-05-26T14:48:09.910Z,11.37
2019-05-26T14:50:40.904Z,18.37
2019-05-26T14:53:11.341Z,15.13
2019-05-26T14:55:40.699Z,12.10
2019-05-26T14:58:15.855Z,11.67
2019-05-26T15:00:41.377Z,14.80
2019-05-26T15:03:10.622Z,11.20
2019-05-26T15:05:41.381Z,17.60
2019-05-26T15:08:11.175Z,20.00
2019-05-26T15:10:40.917Z,15.83
2019-05-26T15:13:11.698Z,16.47
2019-05-26T15:15:42.357Z,16.03
2019-05-26T15:18:12.607Z,15.57
2019-05-26T15:20:42.483Z,20.27
2019-05-26T15:23:13.900Z,16.47
2019-05-26T15:25:43.745Z,23.90
2019-05-26T15:28:13.380Z,14.90
2019-05-26T15:30:44.178Z,18.37
2019-05-26T15:33:14.687Z,17.43
2019-05-26T15:35:45.229Z,22.90
2019-05-26T15:38:15.755Z,19.30
2019-05-26T15:40:45.370Z,16.03
2019-05-26T15:43:14.987Z,10.37
2019-05-26T15:45:45.396Z,15.93
2019-05-26T15:48:14.798Z,14.63
2019-05-26T15:50:44.523Z,17.00
2019-05-26T15:53:15.614Z,7.10
2019-05-26T15:55:45.496Z,11.23
2019-05-26T15:58:14.759Z,5.73
2019-05-26T16:00:43.986Z,5.37
2019-05-26T16:03:13.363Z,4.87
2019-05-26T16:05:42.596Z,6.23
2019-05-26T16:08:12.508Z,4.13
2019-05-26T16:10:42.829Z,5.17
2019-05-26T16:13:12.886Z,6.77
2019-05-26T16:15:42.712Z,7.87
2019-05-26T16:18:11.930Z,5.27
2019-05-26T16:20:41.580Z,5.70
2019-05-26T16:23:10.817Z,5.73
2019-05-26T16:25:42.318Z,6.83
2019-05-26T16:28:11.680Z,3.73
2019-05-26T16:30:41.007Z,6.30
2019-05-26T16:33:10.361Z,13.33
2019-05-26T16:35:39.623Z,10.00
2019-05-26T16:38:08.873Z,3.23
2019-05-26T16:40:39.164Z,1.90
2019-05-26T16:43:29.560Z,3.73
2019-05-26T16:45:59.184Z,7.10
2019-05-26T16:48:28.790Z,3.60
2019-05-26T16:50:58.097Z,3.70
2019-05-26T16:53:27.362Z,2.97
2019-05-26T16:55:57.715Z,9.77
2019-05-26T16:58:26.933Z,3.40
2019-05-26T17:00:58.738Z,3.77
2019-05-26T17:03:28.018Z,2.40
2019-05-26T17:06:07.604Z,3.27
2019-05-26T17:08:28.637Z,7.20
2019-05-26T17:10:58.222Z,7.10
2019-05-26T17:13:27.556Z,1.93
2019-05-26T17:15:58.001Z,4.97
2019-05-26T17:18:27.243Z,5.70
2019-05-26T17:20:56.518Z,2.47
2019-05-26T17:23:25.846Z,5.37
2019-05-26T17:25:55.205Z,1.97
2019-05-26T17:28:24.949Z,6.97
2019-05-26T17:30:54.368Z,4.03
2019-05-26T17:33:23.598Z,3.93
2019-05-26T17:35:53.291Z,3.50
2019-05-26T17:38:22.568Z,5.30
2019-05-26T17:40:52.170Z,3.53
2019-05-26T17:43:21.718Z,5.43
2019-05-26T17:45:51.027Z,6.77
2019-05-26T17:48:20.267Z,2.73
2019-05-26T17:50:49.690Z,3.30
2019-05-26T17:53:19.080Z,5.60
2019-05-26T17:55:48.328Z,3.47
2019-05-26T17:58:20.807Z,5.70
2019-05-26T18:00:50.391Z,2.93
2019-05-26T18:03:20.026Z,4.47
2019-05-26T18:05:52.441Z,6.00
2019-05-26T18:08:21.687Z,7.30
2019-05-26T18:10:51.292Z,4.80
2019-05-26T18:13:22.743Z,8.67
2019-05-26T18:15:54.090Z,5.33
2019-05-26T18:18:24.911Z,12.57
2019-05-26T18:20:54.625Z,5.70
2019-05-26T18:23:24.501Z,5.20
2019-05-26T18:25:54.853Z,3.67
2019-05-26T18:28:25.724Z,3.73
2019-05-26T18:30:55.449Z,3.73
2019-05-26T18:33:24.766Z,8.03
2019-05-26T18:35:54.859Z,4.10
2019-05-26T18:38:24.468Z,5.87
2019-05-26T18:40:54.169Z,10.87
2019-05-26T18:43:23.411Z,6.60
2019-05-26T18:45:54.606Z,3.73
2019-05-26T18:48:23.901Z,4.43
2019-05-26T18:50:53.632Z,5.30
2019-05-26T18:53:22.965Z,3.93
2019-05-26T18:55:52.224Z,4.13
2019-05-26T18:58:21.472Z,4.40
2019-05-26T19:00:50.825Z,4.50
2019-05-26T19:03:20.765Z,5.83
2019-05-26T19:05:50.038Z,4.60
2019-05-26T19:08:19.723Z,6.00
2019-05-26T19:10:49.388Z,8.70
2019-05-26T19:13:18.996Z,6.97
2019-05-26T19:15:48.744Z,7.87
2019-05-26T19:18:20.261Z,7.80
2019-05-26T19:20:49.397Z,6.30
2019-05-26T19:23:18.969Z,7.73
2019-05-26T19:25:48.794Z,9.50
2019-05-26T19:28:18.060Z,9.23
2019-05-26T19:30:47.364Z,9.50
2019-05-26T19:33:16.668Z,11.70
2019-05-26T19:35:46.330Z,8.80
2019-05-26T19:38:15.569Z,8.13
2019-05-26T19:40:45.227Z,7.13
2019-05-26T19:43:15.000Z,13.17
2019-05-26T19:45:45.471Z,13.43
2019-05-26T19:48:14.774Z,16.30
2019-05-26T19:50:44.126Z,10.60
2019-05-26T19:53:14.309Z,13.10
2019-05-26T19:55:43.979Z,10.73
2019-05-26T19:58:13.278Z,15.30
2019-05-26T20:00:42.505Z,11.90
2019-05-26T20:03:12.047Z,10.90
2019-05-26T20:05:41.305Z,9.70
2019-05-26T20:08:10.597Z,14.60
2019-05-26T20:10:39.930Z,8.60
2019-05-26T20:13:09.504Z,12.87
2019-05-26T20:15:38.942Z,9.97
2019-05-26T20:18:09.772Z,9.70
2019-05-26T20:20:39.011Z,12.17
2019-05-26T20:23:08.256Z,13.77
2019-05-26T20:25:38.004Z,8.90
2019-05-26T20:28:07.639Z,10.10
2019-05-26T20:30:36.929Z,10.20
2019-05-26T20:33:06.584Z,10.53
2019-05-26T20:35:35.964Z,9.60
2019-05-26T20:38:26.041Z,6.60
2019-05-26T20:40:55.873Z,9.33
2019-05-26T20:43:26.220Z,6.40
2019-05-26T20:45:56.555Z,11.97
2019-05-26T20:48:26.212Z,11.50
2019-05-26T20:50:55.621Z,7.10
2019-05-26T20:53:26.534Z,12.70
2019-05-26T20:55:57.183Z,11.80
2019-05-26T20:58:26.446Z,8.30
2019-05-26T21:00:57.521Z,6.63
2019-05-26T21:03:27.087Z,9.90
2019-05-26T21:05:56.324Z,7.90
2019-05-26T21:08:25.987Z,13.90
2019-05-26T21:10:56.307Z,10.93
2019-05-26T21:13:25.571Z,11.67
2019-05-26T21:15:54.799Z,11.13
2019-05-26T21:18:25.874Z,7.90
2019-05-26T21:20:55.180Z,9.20
2019-05-26T21:23:24.912Z,12.50
2019-05-26T21:25:54.252Z,11.90
2019-05-26T21:28:23.540Z,10.93
2019-05-26T21:30:52.791Z,7.60
2019-05-26T21:33:24.736Z,10.17
2019-05-26T21:35:54.337Z,15.03
2019-05-26T21:38:23.955Z,10.20
2019-05-26T21:40:53.206Z,12.00
2019-05-26T21:43:22.481Z,12.43
2019-05-26T21:45:51.750Z,12.50
2019-05-26T21:48:21.037Z,17.20
2019-05-26T21:50:50.345Z,12.17
2019-05-26T21:53:19.622Z,17.67
2019-05-26T21:55:48.875Z,14.90
2019-05-26T21:58:19.964Z,18.30
2019-05-26T22:00:50.682Z,16.80
2019-05-26T22:03:19.954Z,17.73
2019-05-26T22:05:49.172Z,13.07
2019-05-26T22:08:20.587Z,24.33
2019-05-26T22:10:50.502Z,13.90
2019-05-26T22:13:20.320Z,14.93
2019-05-26T22:15:50.565Z,17.60
2019-05-26T22:18:19.883Z,16.67
2019-05-26T22:20:49.158Z,13.83
2019-05-26T22:23:18.386Z,19.80
2019-05-26T22:25:48.778Z,17.45
2019-05-26T22:28:19.039Z,15.20
2019-05-26T22:30:48.785Z,17.00
2019-05-26T22:33:18.050Z,16.53
2019-05-26T22:35:47.322Z,13.33
2019-05-26T22:38:16.943Z,14.63
2019-05-26T22:40:46.570Z,14.07
2019-05-26T22:43:16.750Z,15.00
2019-05-26T22:45:46.056Z,15.00
2019-05-26T22:48:15.319Z,16.23
2019-05-26T22:50:44.573Z,12.37
2019-05-26T22:53:13.835Z,10.13
2019-05-26T22:55:43.060Z,13.40
2019-05-26T22:58:12.710Z,11.27
2019-05-26T23:00:41.968Z,20.10
2019-05-26T23:03:11.619Z,11.93
2019-05-26T23:05:41.490Z,8.57
2019-05-26T23:08:10.728Z,16.87
2019-05-26T23:10:39.983Z,9.77
2019-05-26T23:13:09.269Z,11.60
2019-05-26T23:15:38.896Z,10.80
2019-05-26T23:18:08.402Z,9.87
2019-05-26T23:20:38.045Z,10.93
2019-05-26T23:23:07.280Z,10.30
2019-05-26T23:25:36.955Z,11.00
2019-05-26T23:28:06.199Z,11.20
2019-05-26T23:30:37.598Z,15.63
2019-05-26T23:33:06.836Z,15.90
2019-05-26T23:35:36.140Z,12.87
2019-05-26T23:38:05.371Z,11.03
2019-05-26T23:40:36.462Z,10.20
2019-05-26T23:43:05.735Z,16.27
2019-05-26T23:45:35.429Z,12.37
2019-05-26T23:48:05.036Z,13.87
2019-05-26T23:50:34.705Z,11.50
2019-05-26T23:53:03.972Z,11.20
2019-05-26T23:55:33.212Z,15.03
2019-05-26T23:58:03.556Z,12.10
